sensor_id;sensor_type;location;lat;lon;timestamp;P1;durP1;ratioP1;P2;durP2;ratioP2
61338;SDS011;47213;52.362;4.606;2023-04-25T00:00:02;11.90;;;3.30;;
61338;SDS011;47213;52.362;4.606;2023-04-25T00:05:02;11.90;;;3.30;;
61338;SDS011;47213;52.362;4.606;2023-04-25T00:10:01;15.50;;;3.50;;
61338;SDS011;47213;52.362;4.606;2023-04-25T00:15:01;15.50;;;3.50;;
61338;SDS011;47213;52.362;4.606;2023-04-25T00:20:01;13.40;;;3.50;;
61338;SDS011;47213;52.362;4.606;2023-04-25T00:35:01;15.60;;;3.50;;
61338;SDS011;47213;52.362;4.606;2023-04-25T00:40:01;12.90;;;3.30;;
61338;SDS011;47213;52.362;4.606;2023-04-25T00:45:01;12.90;;;3.30;;
61338;SDS011;47213;52.362;4.606;2023-04-25T00:50:01;10.60;;;3.10;;
61338;SDS011;47213;52.362;4.606;2023-04-25T00:55:01;10.60;;;3.10;;
61338;SDS011;47213;52.362;4.606;2023-04-25T01:00:03;13.10;;;2.60;;
61338;SDS011;47213;52.362;4.606;2023-04-25T01:15:01;14.10;;;3.00;;
61338;SDS011;47213;52.362;4.606;2023-04-25T01:25:01;9.80;;;2.60;;
61338;SDS011;47213;52.362;4.606;2023-04-25T01:40:01;12.40;;;3.00;;
61338;SDS011;47213;52.362;4.606;2023-04-25T01:45:02;12.40;;;3.00;;
61338;SDS011;47213;52.362;4.606;2023-04-25T01:55:02;15.40;;;3.10;;
61338;SDS011;47213;52.362;4.606;2023-04-25T02:00:04;13.70;;;2.90;;
61338;SDS011;47213;52.362;4.606;2023-04-25T02:05:01;13.70;;;2.90;;
61338;SDS011;47213;52.362;4.606;2023-04-25T02:10:01;12.50;;;3.00;;
61338;SDS011;47213;52.362;4.606;2023-04-25T02:15:02;12.50;;;3.00;;
61338;SDS011;47213;52.362;4.606;2023-04-25T02:25:02;10.40;;;3.10;;
61338;SDS011;47213;52.362;4.606;2023-04-25T02:30:01;11.20;;;3.00;;
61338;SDS011;47213;52.362;4.606;2023-04-25T02:35:02;11.20;;;3.00;;
61338;SDS011;47213;52.362;4.606;2023-04-25T02:40:02;13.30;;;2.90;;
61338;SDS011;47213;52.362;4.606;2023-04-25T02:45:02;13.30;;;2.90;;
61338;SDS011;47213;52.362;4.606;2023-04-25T02:50:02;11.70;;;2.90;;
61338;SDS011;47213;52.362;4.606;2023-04-25T02:55:01;11.70;;;2.90;;
61338;SDS011;47213;52.362;4.606;2023-04-25T03:00:02;10.30;;;3.10;;
61338;SDS011;47213;52.362;4.606;2023-04-25T03:05:01;10.30;;;3.10;;
61338;SDS011;47213;52.362;4.606;2023-04-25T03:10:01;10.70;;;2.80;;
61338;SDS011;47213;52.362;4.606;2023-04-25T03:15:02;10.70;;;2.80;;
61338;SDS011;47213;52.362;4.606;2023-04-25T03:20:02;12.60;;;2.70;;
61338;SDS011;47213;52.362;4.606;2023-04-25T03:25:02;12.60;;;2.70;;
61338;SDS011;47213;52.362;4.606;2023-04-25T03:30:02;11.80;;;3.00;;
61338;SDS011;47213;52.362;4.606;2023-04-25T03:50:02;9.50;;;2.60;;
61338;SDS011;47213;52.362;4.606;2023-04-25T03:55:02;9.50;;;2.60;;
61338;SDS011;47213;52.362;4.606;2023-04-25T04:05:03;9.20;;;2.50;;
61338;SDS011;47213;52.362;4.606;2023-04-25T04:10:02;11.60;;;3.00;;
61338;SDS011;47213;52.362;4.606;2023-04-25T04:20:02;11.10;;;2.60;;
61338;SDS011;47213;52.362;4.606;2023-04-25T04:25:02;11.10;;;2.60;;
61338;SDS011;47213;52.362;4.606;2023-04-25T04:30:02;10.80;;;3.10;;
61338;SDS011;47213;52.362;4.606;2023-04-25T04:35:02;10.80;;;3.10;;
61338;SDS011;47213;52.362;4.606;2023-04-25T05:05:02;11.50;;;2.50;;
61338;SDS011;47213;52.362;4.606;2023-04-25T05:15:02;10.30;;;2.30;;
61338;SDS011;47213;52.362;4.606;2023-04-25T05:25:02;11.30;;;2.60;;
61338;SDS011;47213;52.362;4.606;2023-04-25T05:30:02;8.40;;;2.60;;
61338;SDS011;47213;52.362;4.606;2023-04-25T05:35:02;8.40;;;2.60;;
61338;SDS011;47213;52.362;4.606;2023-04-25T05:40:02;12.20;;;2.50;;
61338;SDS011;47213;52.362;4.606;2023-04-25T05:45:02;12.20;;;2.50;;
61338;SDS011;47213;52.362;4.606;2023-04-25T05:55:02;8.80;;;2.30;;
61338;SDS011;47213;52.362;4.606;2023-04-25T06:15:02;10.80;;;2.00;;
61338;SDS011;47213;52.362;4.606;2023-04-25T06:25:02;10.70;;;2.00;;
61338;SDS011;47213;52.362;4.606;2023-04-25T06:30:02;9.90;;;2.20;;
61338;SDS011;47213;52.362;4.606;2023-04-25T06:35:02;9.90;;;2.20;;
61338;SDS011;47213;52.362;4.606;2023-04-25T06:40:02;8.60;;;2.10;;
61338;SDS011;47213;52.362;4.606;2023-04-25T06:45:02;8.60;;;2.10;;
61338;SDS011;47213;52.362;4.606;2023-04-25T06:50:02;10.10;;;2.30;;
61338;SDS011;47213;52.362;4.606;2023-04-25T06:55:02;10.10;;;2.30;;
61338;SDS011;47213;52.362;4.606;2023-04-25T07:00:03;12.40;;;2.40;;
61338;SDS011;47213;52.362;4.606;2023-04-25T07:05:03;12.40;;;2.40;;
61338;SDS011;47213;52.362;4.606;2023-04-25T07:10:02;9.80;;;2.30;;
61338;SDS011;47213;52.362;4.606;2023-04-25T07:15:02;9.80;;;2.30;;
61338;SDS011;47213;52.362;4.606;2023-04-25T07:20:02;9.10;;;2.40;;
61338;SDS011;47213;52.362;4.606;2023-04-25T07:25:02;9.10;;;2.40;;
61338;SDS011;47213;52.362;4.606;2023-04-25T07:30:03;10.10;;;2.00;;
61338;SDS011;47213;52.362;4.606;2023-04-25T07:35:02;10.10;;;2.00;;
61338;SDS011;47213;52.362;4.606;2023-04-25T07:40:03;9.50;;;2.20;;
61338;SDS011;47213;52.362;4.606;2023-04-25T07:50:03;10.00;;;2.00;;
61338;SDS011;47213;52.362;4.606;2023-04-25T07:55:02;10.00;;;2.00;;
61338;SDS011;47213;52.362;4.606;2023-04-25T08:00:02;9.50;;;2.10;;
61338;SDS011;47213;52.362;4.606;2023-04-25T08:05:03;9.50;;;2.10;;
61338;SDS011;47213;52.362;4.606;2023-04-25T08:15:03;9.70;;;2.00;;
61338;SDS011;47213;52.362;4.606;2023-04-25T08:25:02;10.30;;;2.10;;
61338;SDS011;47213;52.362;4.606;2023-04-25T08:30:03;9.50;;;1.50;;
61338;SDS011;47213;52.362;4.606;2023-04-25T08:35:03;9.50;;;1.50;;
61338;SDS011;47213;52.362;4.606;2023-04-25T08:40:03;5.70;;;1.60;;
61338;SDS011;47213;52.362;4.606;2023-04-25T08:45:02;5.70;;;1.60;;
61338;SDS011;47213;52.362;4.606;2023-04-25T08:50:03;6.50;;;1.90;;
61338;SDS011;47213;52.362;4.606;2023-04-25T08:55:03;6.50;;;1.90;;
61338;SDS011;47213;52.362;4.606;2023-04-25T09:00:02;6.50;;;1.60;;
61338;SDS011;47213;52.362;4.606;2023-04-25T09:05:03;6.50;;;1.60;;
61338;SDS011;47213;52.362;4.606;2023-04-25T09:10:02;7.80;;;1.70;;
61338;SDS011;47213;52.362;4.606;2023-04-25T09:15:05;7.80;;;1.70;;
61338;SDS011;47213;52.362;4.606;2023-04-25T09:20:06;8.30;;;1.90;;
61338;SDS011;47213;52.362;4.606;2023-04-25T09:25:03;8.30;;;1.90;;
61338;SDS011;47213;52.362;4.606;2023-04-25T09:30:03;9.40;;;2.00;;
61338;SDS011;47213;52.362;4.606;2023-04-25T09:35:03;9.40;;;2.00;;
61338;SDS011;47213;52.362;4.606;2023-04-25T09:40:05;9.10;;;1.90;;
61338;SDS011;47213;52.362;4.606;2023-04-25T09:45:03;9.10;;;1.90;;
61338;SDS011;47213;52.362;4.606;2023-04-25T09:50:03;9.70;;;2.30;;
61338;SDS011;47213;52.362;4.606;2023-04-25T09:55:03;9.70;;;2.30;;
61338;SDS011;47213;52.362;4.606;2023-04-25T10:00:04;7.40;;;1.70;;
61338;SDS011;47213;52.362;4.606;2023-04-25T10:05:05;7.40;;;1.70;;
61338;SDS011;47213;52.362;4.606;2023-04-25T10:10:04;10.40;;;2.10;;
61338;SDS011;47213;52.362;4.606;2023-04-25T10:15:03;10.40;;;2.10;;
61338;SDS011;47213;52.362;4.606;2023-04-25T10:20:03;9.70;;;1.70;;
61338;SDS011;47213;52.362;4.606;2023-04-25T10:25:03;9.70;;;1.70;;
61338;SDS011;47213;52.362;4.606;2023-04-25T10:30:05;8.10;;;1.50;;
61338;SDS011;47213;52.362;4.606;2023-04-25T10:35:11;8.10;;;1.50;;
61338;SDS011;47213;52.362;4.606;2023-04-25T10:40:08;9.20;;;1.30;;
61338;SDS011;47213;52.362;4.606;2023-04-25T10:45:05;9.20;;;1.30;;
61338;SDS011;47213;52.362;4.606;2023-04-25T10:50:05;5.70;;;1.00;;
61338;SDS011;47213;52.362;4.606;2023-04-25T10:55:03;5.70;;;1.00;;
61338;SDS011;47213;52.362;4.606;2023-04-25T11:05:03;5.70;;;1.10;;
61338;SDS011;47213;52.362;4.606;2023-04-25T11:10:03;8.40;;;1.30;;
61338;SDS011;47213;52.362;4.606;2023-04-25T11:15:04;8.40;;;1.30;;
61338;SDS011;47213;52.362;4.606;2023-04-25T11:20:03;6.70;;;1.30;;
61338;SDS011;47213;52.362;4.606;2023-04-25T11:25:04;6.70;;;1.30;;
61338;SDS011;47213;52.362;4.606;2023-04-25T11:30:13;6.70;;;1.10;;
61338;SDS011;47213;52.362;4.606;2023-04-25T11:35:03;6.70;;;1.10;;
61338;SDS011;47213;52.362;4.606;2023-04-25T11:40:03;6.00;;;1.10;;
61338;SDS011;47213;52.362;4.606;2023-04-25T11:45:03;6.00;;;1.10;;
61338;SDS011;47213;52.362;4.606;2023-04-25T11:50:04;6.00;;;1.10;;
61338;SDS011;47213;52.362;4.606;2023-04-25T11:55:05;6.00;;;1.10;;
61338;SDS011;47213;52.362;4.606;2023-04-25T12:00:05;7.10;;;1.00;;
61338;SDS011;47213;52.362;4.606;2023-04-25T12:05:06;7.10;;;1.00;;
61338;SDS011;47213;52.362;4.606;2023-04-25T12:10:09;6.30;;;1.30;;
61338;SDS011;47213;52.362;4.606;2023-04-25T12:15:15;6.30;;;1.30;;
61338;SDS011;47213;52.362;4.606;2023-04-25T12:20:08;8.00;;;1.50;;
61338;SDS011;47213;52.362;4.606;2023-04-25T12:25:04;8.00;;;1.50;;
61338;SDS011;47213;52.362;4.606;2023-04-25T12:30:03;7.80;;;1.60;;
61338;SDS011;47213;52.362;4.606;2023-04-25T12:35:04;7.80;;;1.60;;
61338;SDS011;47213;52.362;4.606;2023-04-25T12:40:03;5.20;;;1.40;;
61338;SDS011;47213;52.362;4.606;2023-04-25T12:45:03;5.20;;;1.40;;
61338;SDS011;47213;52.362;4.606;2023-04-25T12:55:03;8.00;;;1.90;;
61338;SDS011;47213;52.362;4.606;2023-04-25T13:00:03;7.70;;;1.80;;
61338;SDS011;47213;52.362;4.606;2023-04-25T13:05:03;7.70;;;1.80;;
61338;SDS011;47213;52.362;4.606;2023-04-25T13:10:03;7.40;;;1.50;;
61338;SDS011;47213;52.362;4.606;2023-04-25T13:15:03;7.40;;;1.50;;
61338;SDS011;47213;52.362;4.606;2023-04-25T13:20:04;5.70;;;1.90;;
61338;SDS011;47213;52.362;4.606;2023-04-25T13:25:04;5.70;;;1.90;;
61338;SDS011;47213;52.362;4.606;2023-04-25T13:30:03;9.00;;;1.90;;
61338;SDS011;47213;52.362;4.606;2023-04-25T13:35:04;9.00;;;1.90;;
61338;SDS011;47213;52.362;4.606;2023-04-25T13:40:05;6.00;;;1.80;;
61338;SDS011;47213;52.362;4.606;2023-04-25T13:45:03;6.00;;;1.80;;
61338;SDS011;47213;52.362;4.606;2023-04-25T13:50:04;6.00;;;1.80;;
61338;SDS011;47213;52.362;4.606;2023-04-25T13:55:03;8.10;;;1.80;;
61338;SDS011;47213;52.362;4.606;2023-04-25T14:00:04;8.10;;;1.80;;
61338;SDS011;47213;52.362;4.606;2023-04-25T14:10:04;7.50;;;1.70;;
61338;SDS011;47213;52.362;4.606;2023-04-25T14:15:03;7.40;;;2.00;;
61338;SDS011;47213;52.362;4.606;2023-04-25T14:20:04;7.40;;;2.00;;
61338;SDS011;47213;52.362;4.606;2023-04-25T14:25:03;10.70;;;2.00;;
61338;SDS011;47213;52.362;4.606;2023-04-25T14:30:04;10.70;;;2.00;;
61338;SDS011;47213;52.362;4.606;2023-04-25T14:35:03;8.50;;;1.80;;
61338;SDS011;47213;52.362;4.606;2023-04-25T14:40:03;8.50;;;1.80;;
61338;SDS011;47213;52.362;4.606;2023-04-25T14:45:05;7.30;;;2.00;;
61338;SDS011;47213;52.362;4.606;2023-04-25T14:50:04;7.30;;;2.00;;
61338;SDS011;47213;52.362;4.606;2023-04-25T15:00:04;6.30;;;1.60;;
61338;SDS011;47213;52.362;4.606;2023-04-25T15:05:04;6.10;;;1.50;;
61338;SDS011;47213;52.362;4.606;2023-04-25T15:15:03;6.30;;;1.70;;
61338;SDS011;47213;52.362;4.606;2023-04-25T15:20:05;6.30;;;1.70;;
61338;SDS011;47213;52.362;4.606;2023-04-25T15:25:04;7.00;;;1.80;;
61338;SDS011;47213;52.362;4.606;2023-04-25T15:35:05;8.60;;;2.00;;
61338;SDS011;47213;52.362;4.606;2023-04-25T15:40:06;8.60;;;2.00;;
61338;SDS011;47213;52.362;4.606;2023-04-25T15:45:05;8.90;;;1.90;;
61338;SDS011;47213;52.362;4.606;2023-04-25T15:50:05;8.90;;;1.90;;
61338;SDS011;47213;52.362;4.606;2023-04-25T15:55:04;8.20;;;2.00;;
61338;SDS011;47213;52.362;4.606;2023-04-25T16:05:04;7.40;;;2.00;;
61338;SDS011;47213;52.362;4.606;2023-04-25T16:10:04;7.40;;;2.00;;
61338;SDS011;47213;52.362;4.606;2023-04-25T16:20:04;8.60;;;2.20;;
61338;SDS011;47213;52.362;4.606;2023-04-25T16:25:04;10.40;;;2.10;;
61338;SDS011;47213;52.362;4.606;2023-04-25T16:30:06;10.40;;;2.10;;
61338;SDS011;47213;52.362;4.606;2023-04-25T16:40:04;7.00;;;2.10;;
61338;SDS011;47213;52.362;4.606;2023-04-25T16:45:04;9.00;;;2.30;;
61338;SDS011;47213;52.362;4.606;2023-04-25T16:50:04;9.00;;;2.30;;
61338;SDS011;47213;52.362;4.606;2023-04-25T17:00:05;7.70;;;2.40;;
61338;SDS011;47213;52.362;4.606;2023-04-25T17:05:04;8.80;;;2.30;;
61338;SDS011;47213;52.362;4.606;2023-04-25T17:15:04;9.50;;;2.40;;
61338;SDS011;47213;52.362;4.606;2023-04-25T17:20:05;9.50;;;2.40;;
61338;SDS011;47213;52.362;4.606;2023-04-25T17:25:05;9.80;;;2.20;;
61338;SDS011;47213;52.362;4.606;2023-04-25T17:30:04;9.80;;;2.20;;
61338;SDS011;47213;52.362;4.606;2023-04-25T17:40:04;9.10;;;2.60;;
61338;SDS011;47213;52.362;4.606;2023-04-25T17:45:05;9.40;;;2.40;;
61338;SDS011;47213;52.362;4.606;2023-04-25T17:50:05;9.40;;;2.40;;
61338;SDS011;47213;52.362;4.606;2023-04-25T18:00:04;8.70;;;2.40;;
61338;SDS011;47213;52.362;4.606;2023-04-25T18:05:04;8.50;;;2.70;;
61338;SDS011;47213;52.362;4.606;2023-04-25T18:15:04;8.70;;;2.40;;
61338;SDS011;47213;52.362;4.606;2023-04-25T18:20:05;8.70;;;2.40;;
61338;SDS011;47213;52.362;4.606;2023-04-25T18:30:05;9.30;;;2.70;;
61338;SDS011;47213;52.362;4.606;2023-04-25T18:40:04;10.60;;;2.80;;
61338;SDS011;47213;52.362;4.606;2023-04-25T18:45:04;14.20;;;3.70;;
61338;SDS011;47213;52.362;4.606;2023-04-25T18:55:04;12.00;;;3.60;;
61338;SDS011;47213;52.362;4.606;2023-04-25T19:00:05;12.00;;;3.60;;
61338;SDS011;47213;52.362;4.606;2023-04-25T19:05:04;10.10;;;3.50;;
61338;SDS011;47213;52.362;4.606;2023-04-25T19:10:04;10.10;;;3.50;;
61338;SDS011;47213;52.362;4.606;2023-04-25T19:15:04;11.20;;;3.60;;
61338;SDS011;47213;52.362;4.606;2023-04-25T19:25:04;13.40;;;3.90;;
61338;SDS011;47213;52.362;4.606;2023-04-25T19:30:05;13.40;;;3.90;;
61338;SDS011;47213;52.362;4.606;2023-04-25T19:35:05;12.90;;;3.50;;
61338;SDS011;47213;52.362;4.606;2023-04-25T19:40:04;12.90;;;3.50;;
61338;SDS011;47213;52.362;4.606;2023-04-25T19:45:04;11.20;;;3.30;;
61338;SDS011;47213;52.362;4.606;2023-04-25T20:05:05;10.20;;;3.10;;
61338;SDS011;47213;52.362;4.606;2023-04-25T20:15:05;9.30;;;2.90;;
61338;SDS011;47213;52.362;4.606;2023-04-25T20:25:05;10.50;;;3.20;;
61338;SDS011;47213;52.362;4.606;2023-04-25T20:30:05;10.50;;;3.20;;
61338;SDS011;47213;52.362;4.606;2023-04-25T20:35:06;8.40;;;2.90;;
61338;SDS011;47213;52.362;4.606;2023-04-25T20:45:04;11.00;;;3.00;;
61338;SDS011;47213;52.362;4.606;2023-04-25T20:50:05;11.00;;;3.00;;
61338;SDS011;47213;52.362;4.606;2023-04-25T20:55:05;9.60;;;2.80;;
61338;SDS011;47213;52.362;4.606;2023-04-25T21:00:05;9.60;;;2.80;;
61338;SDS011;47213;52.362;4.606;2023-04-25T21:10:04;11.50;;;3.00;;
61338;SDS011;47213;52.362;4.606;2023-04-25T21:15:04;9.00;;;2.90;;
61338;SDS011;47213;52.362;4.606;2023-04-25T21:20:05;9.00;;;2.90;;
61338;SDS011;47213;52.362;4.606;2023-04-25T21:25:04;8.40;;;2.70;;
61338;SDS011;47213;52.362;4.606;2023-04-25T21:30:05;8.40;;;2.70;;
61338;SDS011;47213;52.362;4.606;2023-04-25T21:35:05;10.60;;;3.00;;
61338;SDS011;47213;52.362;4.606;2023-04-25T21:40:06;10.60;;;3.00;;
61338;SDS011;47213;52.362;4.606;2023-04-25T21:45:05;8.20;;;2.50;;
61338;SDS011;47213;52.362;4.606;2023-04-25T22:00:05;6.90;;;2.80;;
61338;SDS011;47213;52.362;4.606;2023-04-25T22:05:04;10.10;;;2.50;;
61338;SDS011;47213;52.362;4.606;2023-04-25T22:15:05;7.60;;;2.40;;
61338;SDS011;47213;52.362;4.606;2023-04-25T22:20:05;7.60;;;2.40;;
61338;SDS011;47213;52.362;4.606;2023-04-25T22:25:05;7.80;;;2.60;;
61338;SDS011;47213;52.362;4.606;2023-04-25T22:30:05;7.80;;;2.60;;
61338;SDS011;47213;52.362;4.606;2023-04-25T22:35:06;10.40;;;2.70;;
61338;SDS011;47213;52.362;4.606;2023-04-25T22:40:05;10.40;;;2.70;;
61338;SDS011;47213;52.362;4.606;2023-04-25T22:45:05;8.60;;;2.90;;
61338;SDS011;47213;52.362;4.606;2023-04-25T22:55:05;7.70;;;2.20;;
61338;SDS011;47213;52.362;4.606;2023-04-25T23:05:05;7.50;;;2.20;;
61338;SDS011;47213;52.362;4.606;2023-04-25T23:10:07;7.50;;;2.20;;
61338;SDS011;47213;52.362;4.606;2023-04-25T23:15:06;8.30;;;2.20;;
61338;SDS011;47213;52.362;4.606;2023-04-25T23:20:05;8.30;;;2.20;;
61338;SDS011;47213;52.362;4.606;2023-04-25T23:25:05;8.80;;;2.30;;
61338;SDS011;47213;52.362;4.606;2023-04-25T23:30:05;8.80;;;2.30;;
61338;SDS011;47213;52.362;4.606;2023-04-25T23:40:06;10.10;;;2.40;;
61338;SDS011;47213;52.362;4.606;2023-04-25T23:45:06;8.20;;;2.30;;
61338;SDS011;47213;52.362;4.606;2023-04-25T23:55:05;9.00;;;2.70;;
